<?xml version="1.0" encoding="UTF-8" standalone="no" ?>
<gpx xmlns="http://www.topografix.com/GPX/1/1" creator="MapSource 6.11.6" version="1.1" xmlns:xsi="http://www.w3.org/2001/XMLSchema-instance" xsi:schemaLocation="http://www.topografix.com/GPX/1/1 http://www.topografix.com/GPX/1/1/gpx.xsd">

  <metadata>
    <link href="http://www.garmin.com">
      <text>Garmin International</text>
    </link>
    <time>2009-05-31T16:57:38Z</time>
    <bounds maxlat="50.716870" maxlon="6.447874" minlat="50.656912" minlon="6.412780"/>
  </metadata>

  <trk>
    <name>Schmidt-Bergstein-Obermaubach</name>
    <extensions>
      <gpxx:TrackExtension xmlns:gpxx="http://www.garmin.com/xmlschemas/GpxExtensions/v3" xmlns:xsi="http://www.w3.org/2001/XMLSchema-instance" xsi:schemaLocation="http://www.garmin.com/xmlschemas/GpxExtensions/v3 http://www.garmin.com/xmlschemas/GpxExtensions/v3/GpxExtensionsv3.xsd">
        <gpxx:DisplayColor>White</gpxx:DisplayColor>
      </gpxx:TrackExtension>
    </extensions>
    <trkseg>
      <trkpt lat="50.713441" lon="6.446495">
        <ele>161.639000</ele>
        <time>2009-02-19T23:32:54Z</time>
      </trkpt>
      <trkpt lat="50.714161" lon="6.447571">
        <ele>160.677000</ele>
        <time>2009-02-19T23:34:08Z</time>
      </trkpt>
      <trkpt lat="50.714373" lon="6.447780">
        <ele>160.677000</ele>
        <time>2009-02-19T23:34:27Z</time>
      </trkpt>
      <trkpt lat="50.714620" lon="6.447874">
        <ele>159.716000</ele>
        <time>2009-02-19T23:34:46Z</time>
      </trkpt>
      <trkpt lat="50.716870" lon="6.445411">
        <ele>163.562000</ele>
        <time>2009-02-19T23:38:12Z</time>
      </trkpt>
      <trkpt lat="50.716710" lon="6.444730">
        <ele>167.407000</ele>
        <time>2009-02-19T23:38:47Z</time>
      </trkpt>
      <trkpt lat="50.716603" lon="6.443966">
        <ele>168.368000</ele>
        <time>2009-02-19T23:39:24Z</time>
      </trkpt>
      <trkpt lat="50.716206" lon="6.443786">
        <ele>167.887000</ele>
        <time>2009-02-19T23:39:55Z</time>
      </trkpt>
      <trkpt lat="50.715844" lon="6.443483">
        <ele>166.445000</ele>
        <time>2009-02-19T23:40:26Z</time>
      </trkpt>
      <trkpt lat="50.715759" lon="6.443366">
        <ele>167.887000</ele>
        <time>2009-02-19T23:40:34Z</time>
      </trkpt>
      <trkpt lat="50.714987" lon="6.441455">
        <ele>167.887000</ele>
        <time>2009-02-19T23:42:22Z</time>
      </trkpt>
      <trkpt lat="50.714935" lon="6.441288">
        <ele>167.887000</ele>
        <time>2009-02-19T23:42:31Z</time>
      </trkpt>
      <trkpt lat="50.714956" lon="6.440751">
        <ele>168.368000</ele>
        <time>2009-02-19T23:42:57Z</time>
      </trkpt>
      <trkpt lat="50.714907" lon="6.440629">
        <ele>168.368000</ele>
        <time>2009-02-19T23:43:04Z</time>
      </trkpt>
      <trkpt lat="50.714405" lon="6.440828">
        <ele>170.291000</ele>
        <time>2009-02-19T23:43:43Z</time>
      </trkpt>
      <trkpt lat="50.714231" lon="6.440822">
        <ele>172.694000</ele>
        <time>2009-02-19T23:43:56Z</time>
      </trkpt>
      <trkpt lat="50.713745" lon="6.439927">
        <ele>176.539000</ele>
        <time>2009-02-19T23:44:52Z</time>
      </trkpt>
      <trkpt lat="50.713314" lon="6.438898">
        <ele>177.501000</ele>
        <time>2009-02-19T23:45:51Z</time>
      </trkpt>
      <trkpt lat="50.712938" lon="6.438279">
        <ele>176.059000</ele>
        <time>2009-02-19T23:46:32Z</time>
      </trkpt>
      <trkpt lat="50.712868" lon="6.437690">
        <ele>174.617000</ele>
        <time>2009-02-19T23:47:00Z</time>
      </trkpt>
      <trkpt lat="50.712898" lon="6.437180">
        <ele>175.578000</ele>
        <time>2009-02-19T23:47:25Z</time>
      </trkpt>
      <trkpt lat="50.712375" lon="6.435949">
        <ele>171.733000</ele>
        <time>2009-02-19T23:48:35Z</time>
      </trkpt>
      <trkpt lat="50.711945" lon="6.435547">
        <ele>173.655000</ele>
        <time>2009-02-19T23:49:13Z</time>
      </trkpt>
      <trkpt lat="50.711359" lon="6.435134">
        <ele>180.865000</ele>
        <time>2009-02-19T23:50:01Z</time>
      </trkpt>
      <trkpt lat="50.710863" lon="6.435286">
        <ele>185.191000</ele>
        <time>2009-02-19T23:50:39Z</time>
      </trkpt>
      <trkpt lat="50.710014" lon="6.435247">
        <ele>197.688000</ele>
        <time>2009-02-19T23:51:43Z</time>
      </trkpt>
      <trkpt lat="50.709861" lon="6.435491">
        <ele>196.246000</ele>
        <time>2009-02-19T23:51:59Z</time>
      </trkpt>
      <trkpt lat="50.709741" lon="6.435560">
        <ele>195.285000</ele>
        <time>2009-02-19T23:52:09Z</time>
      </trkpt>
      <trkpt lat="50.709491" lon="6.435480">
        <ele>194.804000</ele>
        <time>2009-02-19T23:52:28Z</time>
      </trkpt>
      <trkpt lat="50.708626" lon="6.434998">
        <ele>195.766000</ele>
        <time>2009-02-19T23:53:37Z</time>
      </trkpt>
      <trkpt lat="50.708042" lon="6.434651">
        <ele>199.130000</ele>
        <time>2009-02-19T23:54:24Z</time>
      </trkpt>
      <trkpt lat="50.707587" lon="6.434254">
        <ele>202.014000</ele>
        <time>2009-02-19T23:55:03Z</time>
      </trkpt>
      <trkpt lat="50.706938" lon="6.433199">
        <ele>203.456000</ele>
        <time>2009-02-19T23:56:13Z</time>
      </trkpt>
      <trkpt lat="50.706223" lon="6.432411">
        <ele>212.108000</ele>
        <time>2009-02-19T23:57:19Z</time>
      </trkpt>
      <trkpt lat="50.705808" lon="6.432167">
        <ele>216.915000</ele>
        <time>2009-02-19T23:57:52Z</time>
      </trkpt>
      <trkpt lat="50.705516" lon="6.431617">
        <ele>226.528000</ele>
        <time>2009-02-19T23:58:26Z</time>
      </trkpt>
      <trkpt lat="50.704651" lon="6.430259">
        <ele>255.848000</ele>
        <time>2009-02-19T23:59:58Z</time>
      </trkpt>
      <trkpt lat="50.704439" lon="6.430034">
        <ele>261.135000</ele>
        <time>2009-02-20T00:00:17Z</time>
      </trkpt>
      <trkpt lat="50.704037" lon="6.429719">
        <ele>266.422000</ele>
        <time>2009-02-20T00:00:51Z</time>
      </trkpt>
      <trkpt lat="50.703883" lon="6.429671">
        <ele>267.384000</ele>
        <time>2009-02-20T00:01:03Z</time>
      </trkpt>
      <trkpt lat="50.703473" lon="6.429657">
        <ele>271.229000</ele>
        <time>2009-02-20T00:01:34Z</time>
      </trkpt>
      <trkpt lat="50.702233" lon="6.430026">
        <ele>291.417000</ele>
        <time>2009-02-20T00:03:09Z</time>
      </trkpt>
      <trkpt lat="50.702120" lon="6.430012">
        <ele>293.339000</ele>
        <time>2009-02-20T00:03:17Z</time>
      </trkpt>
      <trkpt lat="50.701696" lon="6.430322">
        <ele>299.107000</ele>
        <time>2009-02-20T00:03:52Z</time>
      </trkpt>
      <trkpt lat="50.701350" lon="6.430760">
        <ele>304.395000</ele>
        <time>2009-02-20T00:04:26Z</time>
      </trkpt>
      <trkpt lat="50.700984" lon="6.430850">
        <ele>316.411000</ele>
        <time>2009-02-20T00:04:53Z</time>
      </trkpt>
      <trkpt lat="50.700110" lon="6.430864">
        <ele>328.428000</ele>
        <time>2009-02-20T00:05:59Z</time>
      </trkpt>
      <trkpt lat="50.699979" lon="6.430524">
        <ele>332.754000</ele>
        <time>2009-02-20T00:06:18Z</time>
      </trkpt>
      <trkpt lat="50.699750" lon="6.430577">
        <ele>338.041000</ele>
        <time>2009-02-20T00:06:35Z</time>
      </trkpt>
      <trkpt lat="50.699586" lon="6.430764">
        <ele>343.809000</ele>
        <time>2009-02-20T00:06:51Z</time>
      </trkpt>
      <trkpt lat="50.699535" lon="6.430871">
        <ele>346.693000</ele>
        <time>2009-02-20T00:06:57Z</time>
      </trkpt>
      <trkpt lat="50.699561" lon="6.431030">
        <ele>347.654000</ele>
        <time>2009-02-20T00:07:05Z</time>
      </trkpt>
      <trkpt lat="50.699553" lon="6.430820"/>
      <trkpt lat="50.699337" lon="6.431054"/>
      <trkpt lat="50.698960" lon="6.431330"/>
      <trkpt lat="50.698718" lon="6.431543"/>
      <trkpt lat="50.698529" lon="6.431607"/>
      <trkpt lat="50.698313" lon="6.431522"/>
      <trkpt lat="50.698017" lon="6.431394"/>
      <trkpt lat="50.697747" lon="6.431351"/>
      <trkpt lat="50.697653" lon="6.431224"/>
      <trkpt lat="50.697518" lon="6.431543"/>
      <trkpt lat="50.697370" lon="6.431820"/>
      <trkpt lat="50.697249" lon="6.432096"/>
      <trkpt lat="50.697087" lon="6.432351"/>
      <trkpt lat="50.697080" lon="6.432322">
        <ele>369.764000</ele>
        <time>2009-02-20T00:14:02Z</time>
      </trkpt>
      <trkpt lat="50.696619" lon="6.433373">
        <ele>365.438000</ele>
        <time>2009-02-20T00:15:02Z</time>
      </trkpt>
      <trkpt lat="50.696074" lon="6.434383">
        <ele>363.035000</ele>
        <time>2009-02-20T00:16:06Z</time>
      </trkpt>
      <trkpt lat="50.695940" lon="6.435359">
        <ele>358.709000</ele>
        <time>2009-02-20T00:16:53Z</time>
      </trkpt>
      <trkpt lat="50.695980" lon="6.436246">
        <ele>357.267000</ele>
        <time>2009-02-20T00:17:36Z</time>
      </trkpt>
      <trkpt lat="50.695940" lon="6.436664">
        <ele>353.422000</ele>
        <time>2009-02-20T00:17:56Z</time>
      </trkpt>
      <trkpt lat="50.695600" lon="6.438572">
        <ele>358.228000</ele>
        <time>2009-02-20T00:19:30Z</time>
      </trkpt>
      <trkpt lat="50.695330" lon="6.439283">
        <ele>362.074000</ele>
        <time>2009-02-20T00:20:10Z</time>
      </trkpt>
      <trkpt lat="50.694995" lon="6.439725">
        <ele>364.958000</ele>
        <time>2009-02-20T00:20:43Z</time>
      </trkpt>
      <trkpt lat="50.694990" lon="6.439899">
        <ele>366.400000</ele>
        <time>2009-02-20T00:20:51Z</time>
      </trkpt>
      <trkpt lat="50.695201" lon="6.440599">
        <ele>377.455000</ele>
        <time>2009-02-20T00:21:28Z</time>
      </trkpt>
      <trkpt lat="50.695001" lon="6.441607">
        <ele>392.836000</ele>
        <time>2009-02-20T00:22:18Z</time>
      </trkpt>
      <trkpt lat="50.694770" lon="6.442022">
        <ele>395.720000</ele>
        <time>2009-02-20T00:22:45Z</time>
      </trkpt>
      <trkpt lat="50.694416" lon="6.442198">
        <ele>393.317000</ele>
        <time>2009-02-20T00:23:12Z</time>
      </trkpt>
      <trkpt lat="50.694384" lon="6.442316">
        <ele>390.913000</ele>
        <time>2009-02-20T00:23:19Z</time>
      </trkpt>
      <trkpt lat="50.694288" lon="6.442249">
        <ele>386.107000</ele>
        <time>2009-02-20T00:23:26Z</time>
      </trkpt>
      <trkpt lat="50.694218" lon="6.441718">
        <ele>382.742000</ele>
        <time>2009-02-20T00:23:52Z</time>
      </trkpt>
      <trkpt lat="50.694270" lon="6.441359">
        <ele>378.897000</ele>
        <time>2009-02-20T00:24:10Z</time>
      </trkpt>
      <trkpt lat="50.694557" lon="6.440369">
        <ele>370.726000</ele>
        <time>2009-02-20T00:25:02Z</time>
      </trkpt>
      <trkpt lat="50.694650" lon="6.440162">
        <ele>369.764000</ele>
        <time>2009-02-20T00:25:14Z</time>
      </trkpt>
      <trkpt lat="50.694948" lon="6.439816">
        <ele>366.880000</ele>
        <time>2009-02-20T00:25:42Z</time>
      </trkpt>
      <trkpt lat="50.695447" lon="6.438999">
        <ele>362.554000</ele>
        <time>2009-02-20T00:26:36Z</time>
      </trkpt>
      <trkpt lat="50.695694" lon="6.438233">
        <ele>358.228000</ele>
        <time>2009-02-20T00:27:17Z</time>
      </trkpt>
      <trkpt lat="50.695755" lon="6.437760">
        <ele>357.267000</ele>
        <time>2009-02-20T00:27:40Z</time>
      </trkpt>
      <trkpt lat="50.695497" lon="6.437512">
        <ele>355.825000</ele>
        <time>2009-02-20T00:28:02Z</time>
      </trkpt>
      <trkpt lat="50.695294" lon="6.437098">
        <ele>354.383000</ele>
        <time>2009-02-20T00:28:27Z</time>
      </trkpt>
      <trkpt lat="50.694653" lon="6.434993">
        <ele>350.538000</ele>
        <time>2009-02-20T00:30:19Z</time>
      </trkpt>
      <trkpt lat="50.694566" lon="6.434999">
        <ele>349.096000</ele>
        <time>2009-02-20T00:30:25Z</time>
      </trkpt>
      <trkpt lat="50.693821" lon="6.435591">
        <ele>340.444000</ele>
        <time>2009-02-20T00:31:28Z</time>
      </trkpt>
      <trkpt lat="50.693734" lon="6.435566">
        <ele>339.963000</ele>
        <time>2009-02-20T00:31:35Z</time>
      </trkpt>
      <trkpt lat="50.693679" lon="6.435440">
        <ele>339.483000</ele>
        <time>2009-02-20T00:31:42Z</time>
      </trkpt>
      <trkpt lat="50.693554" lon="6.434452">
        <ele>338.041000</ele>
        <time>2009-02-20T00:32:30Z</time>
      </trkpt>
      <trkpt lat="50.692911" lon="6.432351">
        <ele>338.041000</ele>
        <time>2009-02-20T00:34:21Z</time>
      </trkpt>
      <trkpt lat="50.692923" lon="6.431861">
        <ele>339.963000</ele>
        <time>2009-02-20T00:34:44Z</time>
      </trkpt>
      <trkpt lat="50.693118" lon="6.431137">
        <ele>346.693000</ele>
        <time>2009-02-20T00:35:22Z</time>
      </trkpt>
      <trkpt lat="50.692626" lon="6.430657">
        <ele>342.367000</ele>
        <time>2009-02-20T00:36:05Z</time>
      </trkpt>
      <trkpt lat="50.692432" lon="6.430566">
        <ele>345.731000</ele>
        <time>2009-02-20T00:36:21Z</time>
      </trkpt>
      <trkpt lat="50.691072" lon="6.430247">
        <ele>355.825000</ele>
        <time>2009-02-20T00:38:04Z</time>
      </trkpt>
      <trkpt lat="50.689201" lon="6.429737">
        <ele>351.499000</ele>
        <time>2009-02-20T00:40:27Z</time>
      </trkpt>
      <trkpt lat="50.689451" lon="6.427794">
        <ele>353.903000</ele>
        <time>2009-02-20T00:42:01Z</time>
      </trkpt>
      <trkpt lat="50.689429" lon="6.427630">
        <ele>352.941000</ele>
        <time>2009-02-20T00:42:09Z</time>
      </trkpt>
      <trkpt lat="50.688818" lon="6.427593">
        <ele>351.499000</ele>
        <time>2009-02-20T00:42:55Z</time>
      </trkpt>
      <trkpt lat="50.688043" lon="6.427151">
        <ele>350.538000</ele>
        <time>2009-02-20T00:43:57Z</time>
      </trkpt>
      <trkpt lat="50.687544" lon="6.426950">
        <ele>349.096000</ele>
        <time>2009-02-20T00:44:36Z</time>
      </trkpt>
      <trkpt lat="50.686936" lon="6.426473">
        <ele>345.251000</ele>
        <time>2009-02-20T00:45:27Z</time>
      </trkpt>
      <trkpt lat="50.686581" lon="6.426277">
        <ele>344.289000</ele>
        <time>2009-02-20T00:45:55Z</time>
      </trkpt>
      <trkpt lat="50.686257" lon="6.425922">
        <ele>341.886000</ele>
        <time>2009-02-20T00:46:25Z</time>
      </trkpt>
      <trkpt lat="50.686046" lon="6.425605">
        <ele>340.925000</ele>
        <time>2009-02-20T00:46:47Z</time>
      </trkpt>
      <trkpt lat="50.685874" lon="6.425196">
        <ele>339.963000</ele>
        <time>2009-02-20T00:47:10Z</time>
      </trkpt>
      <trkpt lat="50.685594" lon="6.424495">
        <ele>335.157000</ele>
        <time>2009-02-20T00:47:50Z</time>
      </trkpt>
      <trkpt lat="50.685555" lon="6.424196">
        <ele>332.273000</ele>
        <time>2009-02-20T00:48:04Z</time>
      </trkpt>
      <trkpt lat="50.685604" lon="6.423730">
        <ele>328.908000</ele>
        <time>2009-02-20T00:48:27Z</time>
      </trkpt>
      <trkpt lat="50.685491" lon="6.423452">
        <ele>325.063000</ele>
        <time>2009-02-20T00:48:43Z</time>
      </trkpt>
      <trkpt lat="50.685321" lon="6.422631">
        <ele>313.047000</ele>
        <time>2009-02-20T00:49:24Z</time>
      </trkpt>
      <trkpt lat="50.684927" lon="6.421834">
        <ele>300.549000</ele>
        <time>2009-02-20T00:50:12Z</time>
      </trkpt>
      <trkpt lat="50.684123" lon="6.420824">
        <ele>282.284000</ele>
        <time>2009-02-20T00:51:29Z</time>
      </trkpt>
      <trkpt lat="50.683661" lon="6.420217">
        <ele>270.748000</ele>
        <time>2009-02-20T00:52:14Z</time>
      </trkpt>
      <trkpt lat="50.682848" lon="6.420279">
        <ele>258.251000</ele>
        <time>2009-02-20T00:53:16Z</time>
      </trkpt>
      <trkpt lat="50.682728" lon="6.420280">
        <ele>255.367000</ele>
        <time>2009-02-20T00:53:25Z</time>
      </trkpt>
      <trkpt lat="50.681809" lon="6.419966">
        <ele>230.854000</ele>
        <time>2009-02-20T00:54:35Z</time>
      </trkpt>
      <trkpt lat="50.681453" lon="6.421530">
        <ele>228.450000</ele>
        <time>2009-02-20T00:55:55Z</time>
      </trkpt>
      <trkpt lat="50.681530" lon="6.422646">
        <ele>227.970000</ele>
        <time>2009-02-20T00:56:48Z</time>
      </trkpt>
      <trkpt lat="50.681485" lon="6.423134">
        <ele>227.489000</ele>
        <time>2009-02-20T00:57:12Z</time>
      </trkpt>
      <trkpt lat="50.681158" lon="6.424636">
        <ele>226.528000</ele>
        <time>2009-02-20T00:58:27Z</time>
      </trkpt>
      <trkpt lat="50.680724" lon="6.426467">
        <ele>225.567000</ele>
        <time>2009-02-20T01:00:01Z</time>
      </trkpt>
      <trkpt lat="50.680428" lon="6.427718">
        <ele>225.567000</ele>
        <time>2009-02-20T01:01:04Z</time>
      </trkpt>
      <trkpt lat="50.680507" lon="6.428732">
        <ele>225.567000</ele>
        <time>2009-02-20T01:01:53Z</time>
      </trkpt>
      <trkpt lat="50.680573" lon="6.428853">
        <ele>225.086000</ele>
        <time>2009-02-20T01:02:00Z</time>
      </trkpt>
      <trkpt lat="50.680677" lon="6.428883">
        <ele>225.086000</ele>
        <time>2009-02-20T01:02:08Z</time>
      </trkpt>
      <trkpt lat="50.680882" lon="6.428802">
        <ele>225.567000</ele>
        <time>2009-02-20T01:02:24Z</time>
      </trkpt>
      <trkpt lat="50.680976" lon="6.428870">
        <ele>224.125000</ele>
        <time>2009-02-20T01:02:32Z</time>
      </trkpt>
      <trkpt lat="50.680932" lon="6.429083">
        <ele>225.086000</ele>
        <time>2009-02-20T01:02:43Z</time>
      </trkpt>
      <trkpt lat="50.680702" lon="6.429513">
        <ele>224.605000</ele>
        <time>2009-02-20T01:03:10Z</time>
      </trkpt>
      <trkpt lat="50.680390" lon="6.429770">
        <ele>220.279000</ele>
        <time>2009-02-20T01:03:36Z</time>
      </trkpt>
      <trkpt lat="50.680289" lon="6.429930">
        <ele>218.837000</ele>
        <time>2009-02-20T01:03:47Z</time>
      </trkpt>
      <trkpt lat="50.680176" lon="6.430838">
        <ele>210.185000</ele>
        <time>2009-02-20T01:04:31Z</time>
      </trkpt>
      <trkpt lat="50.680194" lon="6.431530">
        <ele>206.821000</ele>
        <time>2009-02-20T01:05:04Z</time>
      </trkpt>
      <trkpt lat="50.680140" lon="6.431769">
        <ele>207.301000</ele>
        <time>2009-02-20T01:05:16Z</time>
      </trkpt>
      <trkpt lat="50.680100" lon="6.431836">
        <ele>206.821000</ele>
        <time>2009-02-20T01:05:20Z</time>
      </trkpt>
      <trkpt lat="50.680017" lon="6.431702">
        <ele>205.859000</ele>
        <time>2009-02-20T01:05:29Z</time>
      </trkpt>
      <trkpt lat="50.679842" lon="6.430683">
        <ele>206.821000</ele>
        <time>2009-02-20T01:06:20Z</time>
      </trkpt>
      <trkpt lat="50.679634" lon="6.430160">
        <ele>206.821000</ele>
        <time>2009-02-20T01:06:49Z</time>
      </trkpt>
      <trkpt lat="50.679533" lon="6.430001">
        <ele>207.301000</ele>
        <time>2009-02-20T01:07:00Z</time>
      </trkpt>
      <trkpt lat="50.679218" lon="6.429738">
        <ele>206.821000</ele>
        <time>2009-02-20T01:07:27Z</time>
      </trkpt>
      <trkpt lat="50.678859" lon="6.429157">
        <ele>209.224000</ele>
        <time>2009-02-20T01:08:05Z</time>
      </trkpt>
      <trkpt lat="50.678804" lon="6.428863">
        <ele>210.666000</ele>
        <time>2009-02-20T01:08:20Z</time>
      </trkpt>
      <trkpt lat="50.678799" lon="6.427981">
        <ele>216.915000</ele>
        <time>2009-02-20T01:09:02Z</time>
      </trkpt>
      <trkpt lat="50.678749" lon="6.427676">
        <ele>219.318000</ele>
        <time>2009-02-20T01:09:17Z</time>
      </trkpt>
      <trkpt lat="50.678910" lon="6.426837">
        <ele>216.915000</ele>
        <time>2009-02-20T01:09:59Z</time>
      </trkpt>
      <trkpt lat="50.679095" lon="6.426253">
        <ele>216.434000</ele>
        <time>2009-02-20T01:10:30Z</time>
      </trkpt>
      <trkpt lat="50.679570" lon="6.425172">
        <ele>215.473000</ele>
        <time>2009-02-20T01:11:33Z</time>
      </trkpt>
      <trkpt lat="50.679571" lon="6.424299">
        <ele>216.434000</ele>
        <time>2009-02-20T01:12:14Z</time>
      </trkpt>
      <trkpt lat="50.679768" lon="6.423584">
        <ele>221.721000</ele>
        <time>2009-02-20T01:12:51Z</time>
      </trkpt>
      <trkpt lat="50.679758" lon="6.422976">
        <ele>227.970000</ele>
        <time>2009-02-20T01:13:20Z</time>
      </trkpt>
      <trkpt lat="50.679454" lon="6.422625">
        <ele>232.296000</ele>
        <time>2009-02-20T01:13:49Z</time>
      </trkpt>
      <trkpt lat="50.679357" lon="6.422373">
        <ele>232.776000</ele>
        <time>2009-02-20T01:14:03Z</time>
      </trkpt>
      <trkpt lat="50.678703" lon="6.421311">
        <ele>241.428000</ele>
        <time>2009-02-20T01:15:13Z</time>
      </trkpt>
      <trkpt lat="50.678312" lon="6.420861">
        <ele>244.312000</ele>
        <time>2009-02-20T01:15:50Z</time>
      </trkpt>
      <trkpt lat="50.677583" lon="6.420116">
        <ele>252.003000</ele>
        <time>2009-02-20T01:16:55Z</time>
      </trkpt>
      <trkpt lat="50.675561" lon="6.418493">
        <ele>271.229000</ele>
        <time>2009-02-20T01:19:46Z</time>
      </trkpt>
      <trkpt lat="50.673896" lon="6.418424">
        <ele>282.284000</ele>
        <time>2009-02-20T01:21:51Z</time>
      </trkpt>
      <trkpt lat="50.672810" lon="6.418304">
        <ele>289.975000</ele>
        <time>2009-02-20T01:23:13Z</time>
      </trkpt>
      <trkpt lat="50.672197" lon="6.418183">
        <ele>296.224000</ele>
        <time>2009-02-20T01:23:59Z</time>
      </trkpt>
      <trkpt lat="50.671971" lon="6.417964">
        <ele>298.627000</ele>
        <time>2009-02-20T01:24:19Z</time>
      </trkpt>
      <trkpt lat="50.671963" lon="6.416934">
        <ele>303.914000</ele>
        <time>2009-02-20T01:25:08Z</time>
      </trkpt>
      <trkpt lat="50.671932" lon="6.416793">
        <ele>304.395000</ele>
        <time>2009-02-20T01:25:16Z</time>
      </trkpt>
      <trkpt lat="50.671798" lon="6.416756">
        <ele>305.356000</ele>
        <time>2009-02-20T01:25:26Z</time>
      </trkpt>
      <trkpt lat="50.671721" lon="6.417104">
        <ele>306.798000</ele>
        <time>2009-02-20T01:25:43Z</time>
      </trkpt>
      <trkpt lat="50.671324" lon="6.417944">
        <ele>312.085000</ele>
        <time>2009-02-20T01:26:33Z</time>
      </trkpt>
      <trkpt lat="50.670897" lon="6.418297">
        <ele>314.488000</ele>
        <time>2009-02-20T01:27:10Z</time>
      </trkpt>
      <trkpt lat="50.670484" lon="6.418853">
        <ele>317.372000</ele>
        <time>2009-02-20T01:27:50Z</time>
      </trkpt>
      <trkpt lat="50.669737" lon="6.419405">
        <ele>322.179000</ele>
        <time>2009-02-20T01:28:52Z</time>
      </trkpt>
      <trkpt lat="50.669559" lon="6.419470">
        <ele>324.102000</ele>
        <time>2009-02-20T01:29:06Z</time>
      </trkpt>
      <trkpt lat="50.669262" lon="6.419492">
        <ele>326.505000</ele>
        <time>2009-02-20T01:29:29Z</time>
      </trkpt>
      <trkpt lat="50.668913" lon="6.419402">
        <ele>328.428000</ele>
        <time>2009-02-20T01:29:55Z</time>
      </trkpt>
      <trkpt lat="50.668862" lon="6.419529">
        <ele>327.947000</ele>
        <time>2009-02-20T01:30:02Z</time>
      </trkpt>
      <trkpt lat="50.668872" lon="6.419725">
        <ele>327.947000</ele>
        <time>2009-02-20T01:30:12Z</time>
      </trkpt>
      <trkpt lat="50.669420" lon="6.420498">
        <ele>329.870000</ele>
        <time>2009-02-20T01:31:07Z</time>
      </trkpt>
      <trkpt lat="50.669489" lon="6.420685">
        <ele>329.870000</ele>
        <time>2009-02-20T01:31:17Z</time>
      </trkpt>
      <trkpt lat="50.669437" lon="6.421224">
        <ele>330.831000</ele>
        <time>2009-02-20T01:31:43Z</time>
      </trkpt>
      <trkpt lat="50.669508" lon="6.421333">
        <ele>331.312000</ele>
        <time>2009-02-20T01:31:51Z</time>
      </trkpt>
      <trkpt lat="50.669728" lon="6.421322">
        <ele>329.870000</ele>
        <time>2009-02-20T01:32:07Z</time>
      </trkpt>
      <trkpt lat="50.670119" lon="6.421004">
        <ele>331.792000</ele>
        <time>2009-02-20T01:32:40Z</time>
      </trkpt>
      <trkpt lat="50.670847" lon="6.420795">
        <ele>336.118000</ele>
        <time>2009-02-20T01:33:36Z</time>
      </trkpt>
      <trkpt lat="50.671202" lon="6.420804">
        <ele>337.560000</ele>
        <time>2009-02-20T01:34:03Z</time>
      </trkpt>
      <trkpt lat="50.671611" lon="6.421054">
        <ele>340.925000</ele>
        <time>2009-02-20T01:34:36Z</time>
      </trkpt>
      <trkpt lat="50.671841" lon="6.420960">
        <ele>342.367000</ele>
        <time>2009-02-20T01:34:54Z</time>
      </trkpt>
      <trkpt lat="50.672086" lon="6.420978">
        <ele>343.809000</ele>
        <time>2009-02-20T01:35:12Z</time>
      </trkpt>
      <trkpt lat="50.672235" lon="6.421224">
        <ele>346.693000</ele>
        <time>2009-02-20T01:35:28Z</time>
      </trkpt>
      <trkpt lat="50.672506" lon="6.422066">
        <ele>349.096000</ele>
        <time>2009-02-20T01:36:13Z</time>
      </trkpt>
      <trkpt lat="50.672954" lon="6.422710">
        <ele>351.499000</ele>
        <time>2009-02-20T01:36:59Z</time>
      </trkpt>
      <trkpt lat="50.672962" lon="6.423041">
        <ele>355.344000</ele>
        <time>2009-02-20T01:37:15Z</time>
      </trkpt>
      <trkpt lat="50.672874" lon="6.423082">
        <ele>355.825000</ele>
        <time>2009-02-20T01:37:22Z</time>
      </trkpt>
      <trkpt lat="50.672110" lon="6.422415">
        <ele>361.112000</ele>
        <time>2009-02-20T01:38:27Z</time>
      </trkpt>
      <trkpt lat="50.671669" lon="6.422230">
        <ele>364.958000</ele>
        <time>2009-02-20T01:39:02Z</time>
      </trkpt>
      <trkpt lat="50.671274" lon="6.421909">
        <ele>367.842000</ele>
        <time>2009-02-20T01:39:35Z</time>
      </trkpt>
      <trkpt lat="50.671056" lon="6.421840">
        <ele>369.764000</ele>
        <time>2009-02-20T01:39:52Z</time>
      </trkpt>
      <trkpt lat="50.670849" lon="6.422024">
        <ele>370.245000</ele>
        <time>2009-02-20T01:40:10Z</time>
      </trkpt>
      <trkpt lat="50.670597" lon="6.422680">
        <ele>371.687000</ele>
        <time>2009-02-20T01:40:46Z</time>
      </trkpt>
      <trkpt lat="50.670409" lon="6.422851">
        <ele>372.167000</ele>
        <time>2009-02-20T01:41:02Z</time>
      </trkpt>
      <trkpt lat="50.669897" lon="6.423193">
        <ele>375.532000</ele>
        <time>2009-02-20T01:41:44Z</time>
      </trkpt>
      <trkpt lat="50.669053" lon="6.424193">
        <ele>377.935000</ele>
        <time>2009-02-20T01:43:04Z</time>
      </trkpt>
      <trkpt lat="50.668943" lon="6.424230">
        <ele>378.897000</ele>
        <time>2009-02-20T01:43:12Z</time>
      </trkpt>
      <trkpt lat="50.668728" lon="6.424174">
        <ele>378.416000</ele>
        <time>2009-02-20T01:43:29Z</time>
      </trkpt>
      <trkpt lat="50.668186" lon="6.423906">
        <ele>378.897000</ele>
        <time>2009-02-20T01:44:11Z</time>
      </trkpt>
      <trkpt lat="50.667731" lon="6.423434">
        <ele>381.781000</ele>
        <time>2009-02-20T01:44:52Z</time>
      </trkpt>
      <trkpt lat="50.667505" lon="6.423063">
        <ele>381.781000</ele>
        <time>2009-02-20T01:45:17Z</time>
      </trkpt>
      <trkpt lat="50.667152" lon="6.421366">
        <ele>385.626000</ele>
        <time>2009-02-20T01:46:42Z</time>
      </trkpt>
      <trkpt lat="50.667033" lon="6.419949">
        <ele>388.029000</ele>
        <time>2009-02-20T01:47:50Z</time>
      </trkpt>
      <trkpt lat="50.666961" lon="6.419805">
        <ele>388.991000</ele>
        <time>2009-02-20T01:47:59Z</time>
      </trkpt>
      <trkpt lat="50.666830" lon="6.419814">
        <ele>389.952000</ele>
        <time>2009-02-20T01:48:09Z</time>
      </trkpt>
      <trkpt lat="50.666614" lon="6.419947">
        <ele>391.875000</ele>
        <time>2009-02-20T01:48:26Z</time>
      </trkpt>
      <trkpt lat="50.666320" lon="6.420330">
        <ele>392.355000</ele>
        <time>2009-02-20T01:48:55Z</time>
      </trkpt>
      <trkpt lat="50.666256" lon="6.420616">
        <ele>391.394000</ele>
        <time>2009-02-20T01:49:09Z</time>
      </trkpt>
      <trkpt lat="50.666351" lon="6.421237">
        <ele>389.952000</ele>
        <time>2009-02-20T01:49:40Z</time>
      </trkpt>
      <trkpt lat="50.666301" lon="6.421320">
        <ele>388.991000</ele>
        <time>2009-02-20T01:49:45Z</time>
      </trkpt>
      <trkpt lat="50.665814" lon="6.420913">
        <ele>386.107000</ele>
        <time>2009-02-20T01:50:27Z</time>
      </trkpt>
      <trkpt lat="50.665160" lon="6.420219">
        <ele>385.145000</ele>
        <time>2009-02-20T01:51:26Z</time>
      </trkpt>
      <trkpt lat="50.665062" lon="6.420251">
        <ele>384.665000</ele>
        <time>2009-02-20T01:51:33Z</time>
      </trkpt>
      <trkpt lat="50.665040" lon="6.420438">
        <ele>383.703000</ele>
        <time>2009-02-20T01:51:43Z</time>
      </trkpt>
      <trkpt lat="50.665132" lon="6.421080">
        <ele>383.703000</ele>
        <time>2009-02-20T01:52:14Z</time>
      </trkpt>
      <trkpt lat="50.665043" lon="6.421621">
        <ele>387.549000</ele>
        <time>2009-02-20T01:52:41Z</time>
      </trkpt>
      <trkpt lat="50.664807" lon="6.422160">
        <ele>391.875000</ele>
        <time>2009-02-20T01:53:12Z</time>
      </trkpt>
      <trkpt lat="50.664390" lon="6.422927">
        <ele>392.355000</ele>
        <time>2009-02-20T01:54:00Z</time>
      </trkpt>
      <trkpt lat="50.664283" lon="6.422997">
        <ele>393.317000</ele>
        <time>2009-02-20T01:54:09Z</time>
      </trkpt>
      <trkpt lat="50.664198" lon="6.422855">
        <ele>394.759000</ele>
        <time>2009-02-20T01:54:18Z</time>
      </trkpt>
      <trkpt lat="50.663392" lon="6.420428">
        <ele>410.140000</ele>
        <time>2009-02-20T01:56:29Z</time>
      </trkpt>
      <trkpt lat="50.661212" lon="6.416312">
        <ele>426.001000</ele>
        <time>2009-02-20T02:00:44Z</time>
      </trkpt>
      <trkpt lat="50.660115" lon="6.415059">
        <ele>430.327000</ele>
        <time>2009-02-20T02:02:26Z</time>
      </trkpt>
      <trkpt lat="50.658911" lon="6.414051">
        <ele>426.482000</ele>
        <time>2009-02-20T02:04:09Z</time>
      </trkpt>
      <trkpt lat="50.658692" lon="6.413910">
        <ele>428.405000</ele>
        <time>2009-02-20T02:04:27Z</time>
      </trkpt>
      <trkpt lat="50.658630" lon="6.413797">
        <ele>429.366000</ele>
        <time>2009-02-20T02:04:34Z</time>
      </trkpt>
      <trkpt lat="50.658520" lon="6.413237">
        <ele>432.250000</ele>
        <time>2009-02-20T02:05:02Z</time>
      </trkpt>
      <trkpt lat="50.658361" lon="6.413081">
        <ele>434.653000</ele>
        <time>2009-02-20T02:05:16Z</time>
      </trkpt>
      <trkpt lat="50.657928" lon="6.412860">
        <ele>439.940000</ele>
        <time>2009-02-20T02:05:50Z</time>
      </trkpt>
      <trkpt lat="50.657482" lon="6.412780">
        <ele>443.305000</ele>
        <time>2009-02-20T02:06:24Z</time>
      </trkpt>
      <trkpt lat="50.656912" lon="6.413164">
        <ele>441.382000</ele>
        <time>2009-02-20T02:07:10Z</time>
      </trkpt>
    </trkseg>
  </trk>

</gpx>
